Time;durP1;ratioP1;P1;durP2;ratioP2;P2;SDS_P1;SDS_P2;PMS_P1;PMS_P2;Temp;Humidity;BMP_temperature;BMP_pressure;BME280_temperature;BME280_humidity;BME280_pressure;Samples;Min_cycle;Max_cycle;Signal;HPM_P1;HPM_P2
2022/03/31 00:00:42;;;;;;;52.65;35.30;;;;;;;7.94;84.19;94806.91;1683280;82;21368;-78
2022/03/31 00:03:11;;;;;;;47.58;34.78;;;;;;;7.96;84.46;94801.02;1699875;84;21001;-79
2022/03/31 00:05:37;;;;;;;40.00;30.77;;;;;;;7.83;84.22;94800.58;1679831;84;20978;-79
2022/03/31 00:08:06;;;;;;;35.05;26.45;;;;;;;7.74;84.50;94799.70;1679858;85;21006;-79
2022/03/31 00:10:35;;;;;;;32.05;25.77;;;;;;;7.64;84.50;94794.94;1679185;85;21010;-79
2022/03/31 00:13:04;;;;;;;36.70;27.27;;;;;;;7.58;84.83;94789.29;1679900;85;20995;-79
2022/03/31 00:15:30;;;;;;;36.75;27.22;;;;;;;7.62;85.29;94796.93;1679828;85;21006;-79
2022/03/31 00:17:58;;;;;;;36.28;27.27;;;;;;;7.67;85.47;94795.84;1679758;84;21018;-79
2022/03/31 00:20:26;;;;;;;34.38;26.25;;;;;;;7.65;85.23;94793.97;1679899;85;21019;-79
2022/03/31 00:22:52;;;;;;;35.17;26.40;;;;;;;7.65;85.26;94795.76;1679789;85;21360;-79
2022/03/31 00:25:19;;;;;;;32.95;26.12;;;;;;;7.69;85.48;94796.44;1688940;83;21097;-79
2022/03/31 00:27:45;;;;;;;37.73;26.65;;;;;;;7.72;85.36;94792.65;1696059;84;21452;-79
2022/03/31 00:30:13;;;;;;;33.42;25.72;;;;;;;7.72;85.27;94792.15;1680375;84;21041;-79
2022/03/31 00:32:39;;;;;;;34.20;27.48;;;;;;;7.74;85.32;94794.53;1708252;82;20975;-79
2022/03/31 00:35:06;;;;;;;41.05;28.02;;;;;;;7.77;85.27;94794.12;1686425;84;20951;-79
2022/03/31 00:37:32;;;;;;;37.33;27.50;;;;;;;7.72;84.86;94800.41;1679760;85;21035;-79
2022/03/31 00:39:58;;;;;;;35.98;27.10;;;;;;;7.62;84.70;94800.02;1679965;85;20975;-79
2022/03/31 00:42:24;;;;;;;31.85;24.25;;;;;;;7.51;84.52;94796.27;1679964;85;21057;-79
2022/03/31 00:44:50;;;;;;;33.83;26.10;;;;;;;7.45;84.55;94801.72;1680025;85;21050;-80
2022/03/31 00:47:17;;;;;;;29.77;24.20;;;;;;;7.40;84.39;94797.66;1679043;84;21014;-79
2022/03/31 00:49:43;;;;;;;30.72;23.70;;;;;;;7.34;84.43;94802.35;1672538;84;20991;-79
2022/03/31 00:52:09;;;;;;;34.50;25.35;;;;;;;7.34;84.64;94803.64;1672583;86;21059;-79
2022/03/31 00:54:35;;;;;;;30.32;23.27;;;;;;;7.33;84.37;94810.30;1672656;86;21318;-79
2022/03/31 00:57:02;;;;;;;30.65;24.00;;;;;;;7.33;84.42;94809.02;1672611;86;21010;-79
2022/03/31 00:59:30;;;;;;;30.20;22.55;;;;;;;7.33;84.32;94815.47;1672296;84;21294;-79
2022/03/31 01:01:56;;;;;;;28.10;22.60;;;;;;;7.29;84.25;94812.97;1693460;84;20951;-79
2022/03/31 01:04:22;;;;;;;27.42;22.07;;;;;;;7.23;84.08;94804.23;1700543;84;20995;-79
2022/03/31 01:06:49;;;;;;;32.00;23.45;;;;;;;7.17;84.02;94796.80;1700589;84;20956;-79
2022/03/31 01:09:15;;;;;;;30.80;21.95;;;;;;;7.17;84.15;94805.04;1700588;84;20972;-79
2022/03/31 01:11:40;;;;;;;28.35;21.62;;;;;;;7.18;84.23;94807.92;1700693;84;20968;-80
2022/03/31 01:14:07;;;;;;;25.48;20.40;;;;;;;7.19;84.15;94805.14;1700695;84;20971;-80
2022/03/31 01:16:34;;;;;;;26.90;19.87;;;;;;;7.18;83.91;94795.00;1700774;84;21042;-80
2022/03/31 01:19:08;;;;;;;25.62;20.23;;;;;;;7.11;83.97;94801.44;1700076;84;21030;-80
2022/03/31 01:21:39;;;;;;;33.08;28.07;;;;;;;7.10;84.28;94799.86;1700563;84;21034;-80
2022/03/31 01:24:06;;;;;;;27.13;20.75;;;;;;;7.07;84.31;94800.26;1691423;84;21115;-80
2022/03/31 01:26:34;;;;;;;22.25;18.32;;;;;;;7.07;84.12;94799.46;1691789;83;21280;-80
2022/03/31 01:29:00;;;;;;;21.12;15.80;;;;;;;7.06;84.20;94793.50;1676062;84;21042;-80
2022/03/31 01:31:26;;;;;;;20.02;16.35;;;;;;;7.06;84.04;94801.25;1682647;84;21356;-80
2022/03/31 01:33:53;;;;;;;19.57;15.63;;;;;;;7.06;84.02;94806.42;1700695;84;20975;-80
2022/03/31 01:36:19;;;;;;;22.42;17.90;;;;;;;7.05;84.08;94800.95;1700821;84;21387;-80
2022/03/31 01:38:48;;;;;;;19.50;15.90;;;;;;;7.03;84.22;94799.56;1700684;84;21103;-80
2022/03/31 01:41:14;;;;;;;15.95;13.80;;;;;;;7.02;84.27;94807.81;1700059;84;20966;-81
2022/03/31 01:43:40;;;;;;;18.00;13.10;;;;;;;6.96;84.03;94802.63;1700757;84;21106;-80
2022/03/31 01:46:08;;;;;;;14.07;11.70;;;;;;;6.93;84.07;94801.23;1700661;84;21448;-80
2022/03/31 01:48:35;;;;;;;15.00;12.68;;;;;;;6.91;83.98;94804.52;1704327;84;21026;-80
2022/03/31 01:51:04;;;;;;;13.75;12.07;;;;;;;6.87;83.90;94806.70;1708301;84;21010;-80
2022/03/31 01:53:29;;;;;;;14.20;12.33;;;;;;;6.86;84.03;94809.48;1723353;82;21012;-80
2022/03/31 01:55:55;;;;;;;15.80;13.28;;;;;;;6.87;84.27;94804.63;1708326;83;21395;-81
2022/03/31 01:58:20;;;;;;;16.62;13.00;;;;;;;6.90;84.46;94807.59;1708062;84;21055;-80
2022/03/31 02:00:46;;;;;;;17.73;12.93;;;;;;;6.93;84.40;94806.41;1700747;84;21047;-81
2022/03/31 02:03:12;;;;;;;15.45;12.18;;;;;;;6.96;84.32;94809.08;1699275;84;21068;-80
2022/03/31 02:05:38;;;;;;;13.20;10.58;;;;;;;6.91;84.13;94807.09;1699487;84;20964;-81
2022/03/31 02:08:04;;;;;;;11.93;9.43;;;;;;;6.83;84.11;94802.11;1699531;84;20967;-81
2022/03/31 02:10:31;;;;;;;12.10;9.78;;;;;;;6.76;83.99;94796.16;1699211;84;21004;-80
2022/03/31 02:12:57;;;;;;;10.30;9.20;;;;;;;6.70;84.37;94801.62;1703165;83;21015;-80
2022/03/31 02:15:23;;;;;;;10.10;8.35;;;;;;;6.65;84.17;94796.72;1694498;85;21012;-80
2022/03/31 02:17:49;;;;;;;8.68;7.67;;;;;;;6.56;84.52;94793.05;1679825;84;21022;-80
2022/03/31 02:20:14;;;;;;;9.10;7.37;;;;;;;6.45;84.32;94791.52;1679930;84;20943;-80
2022/03/31 02:22:40;;;;;;;8.70;7.03;;;;;;;6.31;84.76;94792.77;1679919;84;21399;-80
2022/03/31 02:25:08;;;;;;;8.00;7.20;;;;;;;6.26;84.56;94796.43;1679779;84;21122;-80
2022/03/31 02:27:36;;;;;;;10.00;8.45;;;;;;;6.23;84.73;94794.73;1679741;85;21027;-80
2022/03/31 02:30:04;;;;;;;8.00;7.20;;;;;;;6.25;84.94;94794.05;1679680;85;20967;-80
2022/03/31 02:32:30;;;;;;;9.65;7.72;;;;;;;6.26;85.11;94795.14;1702830;82;20940;-80
2022/03/31 02:34:56;;;;;;;11.90;9.30;;;;;;;6.24;85.00;94792.45;1708206;84;21002;-80
2022/03/31 02:37:22;;;;;;;11.60;9.73;;;;;;;6.20;85.10;94799.80;1708304;84;21365;-81
2022/03/31 02:39:48;;;;;;;11.00;9.35;;;;;;;6.18;85.30;94800.95;1708291;84;21030;-81
2022/03/31 02:42:14;;;;;;;13.20;11.25;;;;;;;6.12;85.28;94798.66;1707815;84;21011;-80
2022/03/31 02:44:40;;;;;;;13.13;11.03;;;;;;;6.09;85.43;94803.41;1708090;84;21369;-80
2022/03/31 02:47:06;;;;;;;10.25;8.73;;;;;;;6.01;85.29;94801.77;1708131;84;20932;-80
2022/03/31 02:49:32;;;;;;;11.25;10.15;;;;;;;5.95;85.79;94794.31;1724667;83;21115;-80
2022/03/31 02:51:58;;;;;;;12.43;11.22;;;;;;;5.91;85.35;94799.56;1728669;83;21044;-80
2022/03/31 02:57:08;;;;;;;13.20;11.48;;;;;;;5.88;85.71;94803.78;1728761;83;21383;-80
2022/03/31 02:59:34;;;;;;;11.78;10.58;;;;;;;5.82;85.29;94802.45;1720410;83;21000;-80
2022/03/31 03:02:00;;;;;;;10.35;9.25;;;;;;;5.77;85.39;94803.02;1712420;83;21031;-80
2022/03/31 03:04:27;;;;;;;12.68;11.00;;;;;;;5.74;85.25;94808.56;1699660;84;20984;-80
2022/03/31 03:06:53;;;;;;;14.80;12.90;;;;;;;5.67;85.23;94802.06;1699875;84;20972;-80
2022/03/31 03:09:19;;;;;;;14.50;13.08;;;;;;;5.59;84.96;94804.81;1699741;83;21007;-80
2022/03/31 03:11:46;;;;;;;16.02;14.35;;;;;;;5.53;85.28;94804.75;1699497;84;21043;-80
2022/03/31 03:14:13;;;;;;;15.78;14.20;;;;;;;5.49;85.39;94799.67;1699662;84;21330;-80
2022/03/31 03:16:42;;;;;;;16.10;13.93;;;;;;;5.46;85.21;94790.55;1699633;83;21002;-80
2022/03/31 03:19:08;;;;;;;16.55;14.83;;;;;;;5.40;85.22;94794.69;1699620;84;21469;-80
2022/03/31 03:21:34;;;;;;;15.60;14.00;;;;;;;5.33;85.02;94793.83;1699797;83;21039;-79
2022/03/31 03:24:04;;;;;;;16.42;14.15;;;;;;;5.29;84.98;94796.98;1699707;84;21094;-79
2022/03/31 03:26:30;;;;;;;15.43;13.95;;;;;;;5.11;84.63;94797.44;1717788;83;21020;-79
2022/03/31 03:28:56;;;;;;;17.85;15.98;;;;;;;5.05;84.97;94805.92;1728659;83;20987;-79
2022/03/31 03:31:21;;;;;;;18.40;16.15;;;;;;;5.01;84.94;94803.39;1723562;82;20992;-79
2022/03/31 03:33:47;;;;;;;19.17;17.15;;;;;;;4.97;85.20;94804.25;1728803;83;20956;-79
2022/03/31 03:36:19;;;;;;;17.80;14.95;;;;;;;4.91;85.33;94807.58;1721733;83;21099;-79
2022/03/31 03:38:45;;;;;;;21.00;18.80;;;;;;;4.82;85.47;94809.95;1699824;83;21000;-79
2022/03/31 03:41:13;;;;;;;20.35;18.10;;;;;;;4.80;85.51;94811.44;1699547;84;21015;-79
2022/03/31 03:43:42;;;;;;;25.80;23.10;;;;;;;4.83;85.69;94813.63;1699708;84;21086;-79
2022/03/31 03:46:08;;;;;;;21.40;19.15;;;;;;;4.83;85.78;94816.70;1699576;83;21425;-79
2022/03/31 03:48:34;;;;;;;24.50;21.90;;;;;;;4.80;85.84;94810.64;1699396;83;21058;-79
2022/03/31 03:51:00;;;;;;;23.87;20.48;;;;;;;4.76;85.48;94816.65;1700159;83;21118;-79
2022/03/31 03:53:25;;;;;;;25.17;22.52;;;;;;;4.69;85.68;94820.13;1728941;83;21080;-79
2022/03/31 03:55:51;;;;;;;23.40;21.00;;;;;;;4.59;85.46;94820.93;1728968;83;21446;-79
2022/03/31 03:58:17;;;;;;;17.48;15.68;;;;;;;4.56;86.17;94816.16;1727769;83;20999;-79
2022/03/31 04:00:43;;;;;;;20.45;17.87;;;;;;;4.52;85.70;94825.98;1705638;82;21015;-79
2022/03/31 04:03:09;;;;;;;20.80;18.35;;;;;;;4.51;85.80;94828.25;1699458;83;21377;-79
2022/03/31 04:05:35;;;;;;;22.22;19.98;;;;;;;4.43;85.70;94823.23;1699723;84;21003;-79
2022/03/31 04:08:01;;;;;;;23.05;20.65;;;;;;;4.41;86.03;94829.05;1699665;84;20968;-79
2022/03/31 04:10:27;;;;;;;25.85;22.90;;;;;;;4.41;86.27;94818.77;1699664;83;20967;-79
2022/03/31 04:12:53;;;;;;;25.70;21.15;;;;;;;4.33;86.19;94820.14;1699576;84;21553;-79
2022/03/31 04:15:18;;;;;;;25.77;23.02;;;;;;;4.32;86.54;94821.13;1699790;84;21382;-79
2022/03/31 04:17:44;;;;;;;28.45;24.63;;;;;;;4.31;86.38;94829.33;1699850;84;20988;-79
2022/03/31 04:20:11;;;;;;;24.07;21.35;;;;;;;4.34;86.46;94835.39;1699403;83;21051;-79
2022/03/31 04:22:37;;;;;;;27.15;24.07;;;;;;;4.33;86.40;94827.38;1728658;83;20995;-78
2022/03/31 04:25:06;;;;;;;27.95;24.02;;;;;;;4.32;86.51;94828.84;1728412;83;21003;-79
2022/03/31 04:27:34;;;;;;;22.10;19.55;;;;;;;4.33;86.36;94831.72;1728705;83;21067;-79
2022/03/31 04:30:00;;;;;;;25.10;22.02;;;;;;;4.35;86.94;94833.13;1728798;83;21030;-79
2022/03/31 04:32:26;;;;;;;24.02;19.07;;;;;;;4.31;86.37;94831.91;1722853;83;21050;-78
2022/03/31 04:34:52;;;;;;;23.92;19.40;;;;;;;4.31;86.35;94825.97;1728797;83;21382;-79
2022/03/31 04:37:18;;;;;;;24.50;20.08;;;;;;;4.36;86.48;94835.20;1728850;83;21014;-79
2022/03/31 04:39:44;;;;;;;18.50;15.23;;;;;;;4.37;86.26;94843.23;1707343;83;20967;-78
2022/03/31 04:42:10;;;;;;;25.55;20.05;;;;;;;4.34;86.33;94843.59;1699287;84;21028;-79
2022/03/31 04:44:38;;;;;;;22.30;18.60;;;;;;;4.28;86.23;94847.70;1699609;84;21446;-78
2022/03/31 04:47:07;;;;;;;20.62;17.75;;;;;;;4.21;86.66;94834.75;1699380;83;21018;-78
2022/03/31 04:49:33;;;;;;;24.95;20.17;;;;;;;4.10;86.18;94837.00;1697798;83;21016;-78
2022/03/31 04:52:00;;;;;;;20.17;16.50;;;;;;;4.10;86.57;94833.94;1697906;84;21071;-78
2022/03/31 04:54:25;;;;;;;20.20;18.05;;;;;;;4.12;86.76;94838.90;1698000;83;20960;-78
2022/03/31 04:56:51;;;;;;;20.27;16.52;;;;;;;4.14;86.54;94837.73;1697932;84;20987;-78
2022/03/31 04:59:17;;;;;;;19.15;17.02;;;;;;;4.09;86.18;94841.34;1703543;83;21342;-78
2022/03/31 05:01:43;;;;;;;18.17;16.25;;;;;;;4.09;86.43;94845.20;1697602;82;21024;-78
2022/03/31 05:04:11;;;;;;;18.60;16.20;;;;;;;4.10;86.50;94841.66;1697857;84;21047;-78
2022/03/31 05:06:36;;;;;;;17.95;16.00;;;;;;;4.07;86.50;94848.44;1697702;84;21072;-78
2022/03/31 05:09:03;;;;;;;18.85;16.73;;;;;;;4.02;86.62;94849.44;1697943;84;21084;-79
2022/03/31 05:11:30;;;;;;;17.45;15.20;;;;;;;3.99;86.60;94847.72;1697728;84;21031;-78
2022/03/31 05:13:56;;;;;;;19.92;17.00;;;;;;;3.97;86.63;94852.25;1697909;84;21485;-78
2022/03/31 05:16:22;;;;;;;21.25;17.42;;;;;;;3.90;86.62;94850.86;1697725;83;21114;-78
2022/03/31 05:18:48;;;;;;;19.65;17.40;;;;;;;3.91;86.89;94853.77;1697883;84;21110;-78
2022/03/31 05:21:14;;;;;;;17.48;15.70;;;;;;;3.96;86.92;94855.30;1697960;84;21433;-78
2022/03/31 05:23:40;;;;;;;19.90;17.55;;;;;;;3.98;87.00;94856.41;1697878;83;21096;-78
2022/03/31 05:26:06;;;;;;;18.30;16.40;;;;;;;3.96;86.69;94855.30;1720018;83;21047;-78
2022/03/31 05:28:32;;;;;;;17.05;15.30;;;;;;;3.97;86.92;94852.25;1726995;83;21403;-78
2022/03/31 05:30:58;;;;;;;19.02;16.15;;;;;;;4.00;87.00;94852.68;1717619;82;21012;-78
2022/03/31 05:33:24;;;;;;;21.10;17.70;;;;;;;4.01;86.90;94849.63;1697912;84;21067;-78
2022/03/31 05:35:49;;;;;;;21.68;17.05;;;;;;;4.01;87.04;94847.05;1716107;83;21046;-78
2022/03/31 05:38:15;;;;;;;19.95;16.77;;;;;;;3.99;87.12;94852.38;1726315;83;21049;-78
2022/03/31 05:40:41;;;;;;;21.90;17.02;;;;;;;3.97;87.06;94852.25;1726254;83;21022;-78
2022/03/31 05:43:07;;;;;;;17.62;15.53;;;;;;;3.92;87.12;94846.36;1726265;83;20972;-79
2022/03/31 05:45:33;;;;;;;17.10;15.13;;;;;;;3.90;87.03;94850.86;1726335;83;21025;-78
2022/03/31 05:47:58;;;;;;;19.65;16.97;;;;;;;3.91;87.31;94855.05;1726309;83;20950;-78
2022/03/31 05:50:24;;;;;;;18.85;16.87;;;;;;;3.91;87.38;94856.34;1723222;83;21054;-78
2022/03/31 05:52:50;;;;;;;19.45;16.55;;;;;;;3.93;87.43;94862.09;1723451;83;21069;-78
2022/03/31 05:55:17;;;;;;;19.05;17.02;;;;;;;3.96;87.56;94859.16;1722883;83;21420;-78
2022/03/31 05:57:43;;;;;;;18.17;16.12;;;;;;;3.97;87.33;94856.90;1721748;83;20972;-78
2022/03/31 06:00:13;;;;;;;15.90;14.20;;;;;;;4.00;87.43;94852.68;1720728;82;21039;-78
2022/03/31 06:02:39;;;;;;;22.17;18.55;;;;;;;4.03;87.60;94860.52;1719620;83;21038;-78
2022/03/31 06:05:07;;;;;;;18.80;16.27;;;;;;;3.99;87.31;94859.29;1723217;83;21086;-78
2022/03/31 06:07:33;;;;;;;20.37;18.32;;;;;;;3.93;87.59;94862.09;1723306;83;20950;-78
2022/03/31 06:09:59;;;;;;;19.12;16.73;;;;;;;3.89;87.59;94859.55;1722917;83;21064;-78
2022/03/31 06:12:25;;;;;;;22.25;19.85;;;;;;;3.87;87.80;94861.50;1720930;83;21068;-78
2022/03/31 06:14:51;;;;;;;23.12;19.92;;;;;;;3.87;87.86;94861.01;1723271;83;21052;-78
2022/03/31 06:17:16;;;;;;;22.10;19.67;;;;;;;3.89;87.70;94862.91;1723219;83;21384;-78
2022/03/31 06:19:42;;;;;;;20.55;18.42;;;;;;;3.94;87.73;94857.75;1723146;83;21100;-78
2022/03/31 06:22:08;;;;;;;18.98;17.02;;;;;;;3.93;87.44;94863.87;1722523;83;21038;-78
2022/03/31 06:24:34;;;;;;;16.25;14.25;;;;;;;3.88;87.02;94861.80;1723001;83;21024;-78
2022/03/31 06:27:00;;;;;;;16.80;15.23;;;;;;;3.89;87.41;94868.05;1719681;83;21032;-77
2022/03/31 06:29:27;;;;;;;9.93;9.00;;;;;;;3.85;87.21;94865.53;1718441;83;21067;-77
2022/03/31 06:31:53;;;;;;;11.40;10.35;;;;;;;3.78;87.12;94874.94;1717138;82;21427;-77
2022/03/31 06:34:22;;;;;;;13.60;12.18;;;;;;;3.69;87.38;94871.33;1722862;83;21057;-78
2022/03/31 06:36:48;;;;;;;10.25;9.25;;;;;;;3.59;87.27;94877.53;1720514;83;20948;-77
2022/03/31 06:39:14;;;;;;;14.60;13.20;;;;;;;3.61;88.03;94876.86;1721726;83;21022;-77
2022/03/31 06:41:42;;;;;;;12.50;11.40;;;;;;;3.63;87.90;94887.45;1722280;83;21080;-77
2022/03/31 06:44:08;;;;;;;11.00;10.00;;;;;;;3.65;87.84;94885.50;1723381;83;20926;-77
2022/03/31 06:46:35;;;;;;;16.17;14.58;;;;;;;3.61;88.24;94893.56;1723301;83;21013;-77
2022/03/31 06:49:01;;;;;;;14.95;13.30;;;;;;;3.55;87.64;94889.59;1721195;82;21012;-78
2022/03/31 06:51:27;;;;;;;13.75;12.35;;;;;;;3.56;87.62;94899.69;1717415;83;20948;-77
2022/03/31 06:53:55;;;;;;;11.85;10.65;;;;;;;3.55;87.51;94896.02;1715468;83;21390;-77
2022/03/31 06:56:21;;;;;;;12.47;11.30;;;;;;;3.54;87.47;94899.06;1703709;83;21056;-77
2022/03/31 06:58:46;;;;;;;18.20;14.60;;;;;;;3.52;87.81;94900.22;1716672;83;21390;-77
2022/03/31 07:01:12;;;;;;;14.93;13.53;;;;;;;3.53;87.92;94899.24;1719743;82;20972;-77
2022/03/31 07:03:39;;;;;;;11.68;10.58;;;;;;;3.53;87.75;94894.91;1722766;83;21013;-78
2022/03/31 07:06:06;;;;;;;11.88;10.70;;;;;;;3.48;87.73;94893.35;1725887;83;21012;-77
2022/03/31 07:08:34;;;;;;;10.55;9.55;;;;;;;3.44;87.58;94894.68;1731023;82;20966;-77
2022/03/31 07:11:03;;;;;;;11.20;10.08;;;;;;;3.45;87.60;94902.70;1691061;83;21436;-77
2022/03/31 07:13:29;;;;;;;11.40;10.25;;;;;;;3.48;87.74;94892.07;1726275;83;20978;-77
2022/03/31 07:15:55;;;;;;;11.22;10.15;;;;;;;3.50;87.51;94890.61;1726669;83;21283;-78
2022/03/31 07:18:21;;;;;;;9.13;8.25;;;;;;;3.48;87.74;94889.50;1718920;83;21098;-78
2022/03/31 07:20:46;;;;;;;8.40;7.70;;;;;;;3.52;88.01;94894.59;1726521;83;21043;-77
2022/03/31 07:23:12;;;;;;;9.25;8.45;;;;;;;3.55;87.75;94889.59;1718632;83;20960;-77
2022/03/31 07:25:38;;;;;;;8.93;8.13;;;;;;;3.57;87.65;94895.34;1724051;83;21344;-77
2022/03/31 07:28:04;;;;;;;8.73;7.92;;;;;;;3.58;87.70;94891.34;1723421;83;20982;-77
2022/03/31 07:30:30;;;;;;;8.85;8.05;;;;;;;3.59;87.58;94887.01;1715374;83;21036;-77
2022/03/31 07:32:59;;;;;;;7.80;7.00;;;;;;;3.61;87.76;94896.61;1724043;82;20960;-77
2022/03/31 07:35:27;;;;;;;8.80;7.97;;;;;;;3.64;88.06;94891.12;1722059;83;20990;-78
2022/03/31 07:37:54;;;;;;;10.48;9.53;;;;;;;3.62;87.58;94894.36;1715067;83;21437;-77
2022/03/31 07:40:21;;;;;;;10.82;9.35;;;;;;;3.63;87.55;94901.09;1725104;83;21139;-77
2022/03/31 07:42:48;;;;;;;10.78;9.78;;;;;;;3.65;88.06;94895.77;1724962;83;21038;-77
2022/03/31 07:45:14;;;;;;;11.75;10.55;;;;;;;3.64;87.81;94896.75;1724884;83;21028;-77
2022/03/31 07:47:41;;;;;;;11.08;9.98;;;;;;;3.66;88.00;94898.66;1723025;83;20947;-77
2022/03/31 07:50:11;;;;;;;11.28;10.18;;;;;;;3.70;87.76;94899.89;1723184;83;21033;-77
2022/03/31 07:52:38;;;;;;;10.32;9.43;;;;;;;3.72;87.50;94901.80;1719540;83;20997;-77
2022/03/31 07:55:04;;;;;;;11.25;10.10;;;;;;;3.73;87.73;94906.75;1723811;83;20988;-78
2022/03/31 07:57:30;;;;;;;11.10;10.10;;;;;;;3.75;87.72;94909.17;1721048;83;20990;-78
2022/03/31 07:59:57;;;;;;;7.25;6.50;;;;;;;3.75;87.66;94913.03;1718292;83;20988;-78
2022/03/31 08:02:25;;;;;;;10.82;9.73;;;;;;;3.71;87.43;94913.05;1687334;83;20970;-78
2022/03/31 08:04:52;;;;;;;12.95;11.75;;;;;;;3.67;87.60;94913.09;1718616;83;21007;-78
2022/03/31 08:07:18;;;;;;;12.43;11.20;;;;;;;3.67;87.56;94913.89;1715882;83;21330;-78
2022/03/31 08:09:44;;;;;;;11.60;10.53;;;;;;;3.69;87.64;94916.28;1715982;83;21033;-78
2022/03/31 08:12:10;;;;;;;11.57;10.48;;;;;;;3.74;87.60;94919.11;1723114;83;21028;-78
2022/03/31 08:14:36;;;;;;;12.65;11.45;;;;;;;3.81;87.89;94923.88;1720358;83;21012;-78
2022/03/31 08:17:02;;;;;;;13.98;12.37;;;;;;;3.89;88.06;94923.30;1721510;83;21017;-80
2022/03/31 08:19:30;;;;;;;12.18;11.03;;;;;;;3.94;88.28;94921.50;1719707;83;21018;-79
2022/03/31 08:21:56;;;;;;;14.30;12.85;;;;;;;3.91;87.67;94917.52;1721649;83;21005;-80
2022/03/31 08:24:22;;;;;;;12.68;11.43;;;;;;;3.87;87.77;94928.30;1696680;83;21063;-80
2022/03/31 08:26:47;;;;;;;12.00;10.85;;;;;;;3.85;87.65;94932.83;1717605;83;21032;-80
2022/03/31 08:29:13;;;;;;;11.83;10.70;;;;;;;3.91;87.79;94929.57;1715234;83;21055;-80
2022/03/31 08:31:39;;;;;;;12.70;10.65;;;;;;;3.97;87.82;94919.06;1721940;82;20914;-79
2022/03/31 08:34:05;;;;;;;11.80;10.60;;;;;;;4.01;87.59;94919.02;1720848;83;21358;-80
2022/03/31 08:36:31;;;;;;;9.35;7.85;;;;;;;4.03;87.53;94919.14;1723067;83;20970;-80
2022/03/31 08:38:57;;;;;;;9.20;8.30;;;;;;;4.08;87.45;94917.35;1719571;83;21064;-80
2022/03/31 08:41:26;;;;;;;7.45;6.75;;;;;;;4.13;87.39;94917.13;1719384;83;21353;-79
2022/03/31 08:43:52;;;;;;;8.20;7.40;;;;;;;4.21;87.46;94917.50;1718567;83;21387;-80
2022/03/31 08:46:18;;;;;;;9.43;8.50;;;;;;;4.21;87.55;94908.02;1722502;83;21001;-80
2022/03/31 08:48:44;;;;;;;8.60;6.53;;;;;;;4.21;87.81;94906.73;1719149;83;21420;-81
2022/03/31 08:51:10;;;;;;;11.80;9.03;;;;;;;4.16;87.42;94909.05;1714433;83;21120;-80
2022/03/31 08:53:36;;;;;;;10.35;9.10;;;;;;;4.14;87.79;94905.06;1719406;83;21107;-82
2022/03/31 08:56:04;;;;;;;9.80;8.60;;;;;;;4.15;88.06;94902.31;1715297;83;21032;-84
2022/03/31 08:58:29;;;;;;;11.25;9.90;;;;;;;4.16;87.86;94907.77;1715520;83;21017;-82
2022/03/31 09:00:55;;;;;;;9.03;7.87;;;;;;;4.20;87.89;94907.70;1714000;82;21071;-82
2022/03/31 09:03:21;;;;;;;8.75;7.62;;;;;;;4.17;87.71;94898.28;1718725;83;21049;-83
2022/03/31 09:05:51;;;;;;;8.60;7.53;;;;;;;4.16;87.85;94901.83;1706469;83;21490;-82
2022/03/31 09:08:17;;;;;;;10.10;9.10;;;;;;;4.18;88.09;94908.38;1713028;83;20992;-83
2022/03/31 09:10:47;;;;;;;11.35;10.20;;;;;;;4.21;88.43;94905.45;1717411;83;20966;-83
2022/03/31 09:13:25;;;;;;;10.35;9.25;;;;;;;4.22;88.57;94904.47;1713004;83;21084;-82
2022/03/31 09:16:01;;;;;;;8.93;8.13;;;;;;;4.24;88.27;94912.03;1716031;83;20981;-83
2022/03/31 09:18:29;;;;;;;11.57;10.18;;;;;;;4.28;88.55;94908.12;1717192;83;20969;-83
2022/03/31 09:20:59;;;;;;;9.93;8.18;;;;;;;4.30;88.38;94907.45;1713905;83;21056;-83
2022/03/31 09:23:28;;;;;;;8.60;7.70;;;;;;;4.37;88.28;94912.17;1715180;83;20940;-83
2022/03/31 09:26:08;;;;;;;13.25;11.85;;;;;;;4.32;88.04;94913.70;1714336;83;21000;-83
2022/03/31 09:28:34;;;;;;;11.80;9.10;;;;;;;4.26;87.90;94910.08;1715521;83;21048;-82
2022/03/31 09:30:59;;;;;;;9.90;8.60;;;;;;;4.29;87.91;94907.63;1713190;82;21000;-82
2022/03/31 09:33:33;;;;;;;12.25;10.35;;;;;;;4.36;88.04;94905.92;1715546;83;20997;-82
2022/03/31 09:36:07;;;;;;;13.43;11.80;;;;;;;4.37;87.75;94904.95;1716280;83;21060;-82
2022/03/31 09:38:37;;;;;;;14.38;12.95;;;;;;;4.38;88.18;94902.19;1716071;83;21370;-86
2022/03/31 09:41:19;;;;;;;13.32;11.97;;;;;;;4.40;88.24;94900.27;1718458;83;21052;-82
2022/03/31 09:43:45;;;;;;;11.28;10.13;;;;;;;4.39;87.96;94897.39;1700859;83;20966;-82
2022/03/31 09:46:36;;;;;;;12.20;10.80;;;;;;;4.40;88.15;94896.90;1684349;83;20992;-82
2022/03/31 09:49:24;;;;;;;12.03;10.63;;;;;;;4.38;87.58;94897.54;1715751;83;20982;-82
2022/03/31 09:51:54;;;;;;;9.80;8.78;;;;;;;4.31;87.13;94902.61;1720569;83;21068;-82
2022/03/31 09:54:25;;;;;;;10.23;9.23;;;;;;;4.27;87.66;94907.02;1716752;83;21019;-83
2022/03/31 09:56:51;;;;;;;9.10;7.90;;;;;;;4.26;87.71;94906.22;1712656;83;21008;-81
2022/03/31 09:59:17;;;;;;;10.95;8.40;;;;;;;4.18;87.32;94905.01;1722062;82;20949;-82
2022/03/31 10:01:43;;;;;;;9.13;8.28;;;;;;;4.13;87.35;94902.98;1719960;82;20972;-82
2022/03/31 10:04:11;;;;;;;10.48;8.15;;;;;;;4.08;87.41;94898.87;1719799;83;21016;-82
2022/03/31 10:06:39;;;;;;;10.85;9.03;;;;;;;4.04;87.41;94901.46;1715569;83;21310;-81
2022/03/31 10:09:06;;;;;;;11.22;9.30;;;;;;;4.03;88.02;94894.73;1717471;83;21043;-82
2022/03/31 10:11:37;;;;;;;11.65;10.43;;;;;;;4.05;87.87;94890.20;1722454;83;21079;-81
2022/03/31 10:14:40;;;;;;;10.18;9.18;;;;;;;4.05;87.52;94897.91;1717359;83;21061;-81
2022/03/31 10:17:10;;;;;;;9.95;8.43;;;;;;;4.08;87.69;94894.22;1719446;83;21027;-83
2022/03/31 10:19:40;;;;;;;12.70;11.50;;;;;;;4.08;87.71;94898.08;1715485;83;21414;-84
2022/03/31 10:25:08;;;;;;;14.33;12.53;;;;;;;3.89;87.42;94900.17;1715165;83;21305;-81
2022/03/31 10:27:39;;;;;;;12.55;11.25;;;;;;;3.91;87.83;94898.25;1718558;83;21426;-82
2022/03/31 10:30:21;;;;;;;11.28;10.10;;;;;;;3.95;87.87;94890.98;1714750;83;20982;-87
2022/03/31 10:32:59;;;;;;;10.93;9.75;;;;;;;4.04;88.33;94899.38;1712479;83;20968;-82
2022/03/31 10:35:31;;;;;;;11.38;10.32;;;;;;;4.06;87.81;94882.80;1712485;83;21047;-84
2022/03/31 10:37:59;;;;;;;15.40;13.80;;;;;;;4.02;87.66;94889.28;1719353;83;20995;-84
2022/03/31 10:40:33;;;;;;;13.22;11.93;;;;;;;3.99;87.78;94892.20;1671683;83;22545;-83
2022/03/31 10:42:59;;;;;;;12.50;11.15;;;;;;;3.98;88.00;94893.19;1719054;83;21039;-83
2022/03/31 10:45:40;;;;;;;15.35;11.78;;;;;;;3.98;88.16;94890.62;1715430;83;21382;-82
2022/03/31 10:48:17;;;;;;;11.93;10.70;;;;;;;3.99;87.96;94895.27;1703721;82;20961;-82
2022/03/31 10:50:43;;;;;;;11.35;9.45;;;;;;;4.01;87.78;94892.03;1700538;83;21011;-83
2022/03/31 10:53:09;;;;;;;10.58;9.28;;;;;;;4.01;87.80;94890.75;1692395;85;21310;-81
2022/03/31 10:55:49;;;;;;;12.95;10.88;;;;;;;3.94;87.25;94893.72;1689469;85;21072;-81
2022/03/31 10:58:21;;;;;;;13.90;9.75;;;;;;;3.96;87.56;94891.28;1695739;85;21040;-82
2022/03/31 11:00:49;;;;;;;11.03;9.53;;;;;;;4.01;87.94;94892.83;1682467;85;21000;-81
2022/03/31 11:03:17;;;;;;;11.55;10.40;;;;;;;4.04;87.72;94889.89;1675733;85;21027;-82
2022/03/31 11:05:43;;;;;;;13.68;10.90;;;;;;;4.01;87.27;94894.11;1689079;85;21344;-82
2022/03/31 11:08:09;;;;;;;12.23;11.03;;;;;;;3.97;87.80;94891.59;1692229;85;20987;-81
2022/03/31 11:10:42;;;;;;;10.98;9.55;;;;;;;3.99;87.91;94890.92;1694144;84;20997;-81
2022/03/31 11:13:08;;;;;;;11.00;9.90;;;;;;;3.99;87.92;94886.27;1693884;85;20972;-81
2022/03/31 11:15:34;;;;;;;12.50;11.28;;;;;;;3.99;87.80;94889.64;1694886;85;21358;-82
2022/03/31 11:18:00;;;;;;;9.93;8.70;;;;;;;4.03;87.83;94879.31;1695941;85;20973;-82
2022/03/31 11:20:26;;;;;;;10.65;9.45;;;;;;;4.05;87.66;94880.41;1695956;84;21080;-82
2022/03/31 11:22:59;;;;;;;12.47;9.43;;;;;;;4.06;87.42;94878.95;1696048;85;20963;-82
2022/03/31 11:25:25;;;;;;;9.70;8.80;;;;;;;4.08;87.40;94880.08;1694269;85;20995;-82
2022/03/31 11:27:58;;;;;;;10.88;9.88;;;;;;;4.02;87.12;94881.57;1693297;85;21442;-83
2022/03/31 11:30:26;;;;;;;10.03;9.00;;;;;;;4.01;87.30;94877.41;1692623;85;22234;-83
2022/03/31 11:32:54;;;;;;;11.40;10.40;;;;;;;4.02;87.46;94878.20;1669309;85;21019;-82
2022/03/31 11:35:22;;;;;;;10.72;9.78;;;;;;;4.02;87.29;94871.78;1690701;85;21013;-83